Terminal Aerodrome Forecast
Issued by NWS

Home | Current Version | Previous Version | Text Only | Print | Product List | Glossary Off
Versions: 1 2 3 4 5 6 7 8 9 10 11 12 13 14 15 16 17 18 19 20

000
FTUS43 KABR 220831 AAB
TAFPIR
TAF AMD
KPIR 220831Z 2209/2306 13015KT P6SM -SN FEW005 BKN030 OVC060
     FM220930 13016KT P6SM OVC070
     FM221300 13020G29KT P6SM OVC050
     FM230000 14015KT P6SM BKN250=

USA.gov is the U.S. government's official web portal to all federal, state and local government web resources and services.